Washington, New Hampshire
Current Conditions -  °F | °C
As of 9:35 PM on Saturday 22 Nov 2014 (Local Time) from KEEN Reporting Station
Overcast Overcast  
Wind Chill: 31°   Ceiling: 4000
Heat Index: 37°   Visibility: 10mi
Dew Point: 14°   Wind: 9mph
Humidity: 38%   Direction: 210°SSW
Pressure: 30.05"   Gusts: NA
Location:  43.18°N, 72.1°W
Report Text: KEEN 230235Z AUTO 21008KT 10SM SCT033 BKN040 OVC070 03/M10 A3005 RMK AO1
Loading
Personal Weather Stations






























Interactive Weather Map New forecast layout! Learn more

10-Day Weather Forecast

Advertisements
Track Severe Weather on mobile